Time;durP1;ratioP1;P1;durP2;ratioP2;P2;SDS_P1;SDS_P2;PMS_P1;PMS_P2;Temp;Humidity;BMP_temperature;BMP_pressure;BME280_temperature;BME280_humidity;BME280_pressure;Samples;Min_cycle;Max_cycle;Signal;HPM_P1;HPM_P2
2021/06/27 00:05:04;;;;;;;9.83;8.23;;;;;;;17.64;100.00;101795.09;1911419;73;39543;-75
2021/06/27 00:10:32;;;;;;;8.47;7.13;;;;;;;17.68;100.00;101781.25;1838263;77;85670;-75
2021/06/27 00:15:58;;;;;;;8.77;7.63;;;;;;;17.72;100.00;101771.89;1929859;72;39554;-76
2021/06/27 00:21:24;;;;;;;8.97;7.53;;;;;;;17.80;100.00;101768.12;1825166;76;86568;-75
2021/06/27 00:27:10;;;;;;;9.23;7.17;;;;;;;17.72;100.00;101771.89;1867040;75;85485;-75
2021/06/27 00:32:34;;;;;;;9.30;7.57;;;;;;;17.80;100.00;101775.14;1949175;73;39655;-73
2021/06/27 00:38:02;;;;;;;8.07;7.20;;;;;;;17.81;100.00;101772.56;1943807;73;39670;-75
2021/06/27 00:43:30;;;;;;;7.43;6.63;;;;;;;17.83;100.00;101780.13;1868506;76;85740;-77
2021/06/27 00:48:53;;;;;;;9.93;7.90;;;;;;;17.83;100.00;101780.97;1916049;73;39735;-75
2021/06/27 00:54:17;;;;;;;8.77;7.47;;;;;;;17.86;100.00;101776.69;1837296;77;86532;-78
2021/06/27 00:59:42;;;;;;;7.93;6.80;;;;;;;17.88;100.00;101767.39;1947116;73;39606;-78
2021/06/27 01:05:11;;;;;;;9.43;8.00;;;;;;;17.87;100.00;101764.31;1877533;75;86340;-78
2021/06/27 01:10:36;;;;;;;10.90;8.87;;;;;;;17.84;100.00;101764.34;1906572;73;39760;-74
2021/06/27 01:16:01;;;;;;;9.47;7.87;;;;;;;17.79;100.00;101768.69;1926565;73;39637;-72
2021/06/27 01:21:26;;;;;;;8.60;7.70;;;;;;;17.81;100.00;101773.41;1943459;71;86199;-75
2021/06/27 01:26:50;;;;;;;7.97;7.10;;;;;;;17.80;100.00;101759.69;1916581;73;39581;-75
2021/06/27 01:32:14;;;;;;;7.80;7.00;;;;;;;17.81;100.00;101760.76;1882662;75;86413;-74
2021/06/27 01:40:27;;;;;;;8.13;6.47;;;;;;;17.80;100.00;101750.66;2010969;69;39576;-78
2021/06/27 01:43:12;;;;;;;9.93;6.63;;;;;;;17.72;100.00;101757.84;1923491;73;934577;-77
2021/06/27 01:48:39;;;;;;;6.50;5.80;;;;;;;17.79;100.00;101744.80;1938205;72;39713;-77
2021/06/27 01:54:03;;;;;;;6.53;5.83;;;;;;;17.81;100.00;101742.48;1925183;73;39437;-75
2021/06/27 01:59:27;;;;;;;6.03;4.97;;;;;;;17.78;100.00;101729.64;1838206;77;86106;-78
2021/06/27 02:04:51;;;;;;;6.87;6.20;;;;;;;17.84;100.00;101740.45;1945409;73;39439;-78
2021/06/27 02:10:20;;;;;;;7.80;6.67;;;;;;;17.84;100.00;101729.20;1877400;76;86812;-78
2021/06/27 02:15:45;;;;;;;7.73;6.77;;;;;;;17.71;100.00;101716.82;1924159;72;39862;-77
2021/06/27 02:21:17;;;;;;;7.37;6.57;;;;;;;17.75;100.00;101701.59;1876975;75;85597;-75
2021/06/27 02:26:42;;;;;;;8.30;7.03;;;;;;;17.75;100.00;101701.59;1947142;73;39528;-75
2021/06/27 02:32:11;;;;;;;8.53;7.03;;;;;;;17.70;100.00;101698.89;1876953;75;86320;-75
2021/06/27 02:37:36;;;;;;;7.83;7.03;;;;;;;17.69;100.00;101702.84;1948882;73;39495;-78
2021/06/27 02:43:04;;;;;;;7.93;6.70;;;;;;;17.71;100.00;101693.53;1889091;73;39683;-78
2021/06/27 02:48:28;;;;;;;8.90;7.60;;;;;;;17.64;100.00;101684.10;1838054;77;86729;-75
2021/06/27 02:53:52;;;;;;;10.27;7.47;;;;;;;17.69;100.00;101681.77;1898486;73;39482;-74
2021/06/27 02:59:16;;;;;;;9.10;6.83;;;;;;;17.73;100.00;101678.59;1837182;77;86860;-78
2021/06/27 03:04:41;;;;;;;8.77;7.30;;;;;;;17.70;100.00;101678.66;1903779;73;39529;-77
2021/06/27 03:10:07;;;;;;;9.87;7.90;;;;;;;17.72;100.00;101669.89;1926483;72;39539;-75
2021/06/27 03:15:31;;;;;;;10.27;7.63;;;;;;;17.69;100.00;101661.52;1869287;76;86276;-74
2021/06/27 03:20:56;;;;;;;10.43;8.10;;;;;;;17.62;100.00;101659.72;1930551;72;39745;-78
2021/06/27 03:26:20;;;;;;;11.33;8.50;;;;;;;17.70;100.00;101653.93;1837423;77;86370;-78
2021/06/27 03:31:45;;;;;;;11.03;8.50;;;;;;;17.73;100.00;101649.08;1946600;73;39578;-78
2021/06/27 03:37:09;;;;;;;11.33;8.50;;;;;;;17.72;100.00;101648.81;1881677;75;86604;-74
2021/06/27 03:42:33;;;;;;;13.37;8.87;;;;;;;17.71;100.00;101645.16;1949163;73;39688;-74
2021/06/27 03:47:57;;;;;;;12.87;10.10;;;;;;;17.68;100.00;101642.16;1896271;73;39478;-78
2021/06/27 03:53:21;;;;;;;12.30;9.87;;;;;;;17.71;100.00;101632.52;1837641;77;86146;-75
2021/06/27 03:58:47;;;;;;;12.27;8.83;;;;;;;17.71;100.00;101637.34;1946344;73;39433;-77
2021/06/27 04:04:12;;;;;;;12.10;8.63;;;;;;;17.80;100.00;101628.39;1892321;74;86489;-77
2021/06/27 04:09:36;;;;;;;11.27;8.63;;;;;;;17.74;100.00;101615.63;1948776;73;39511;-75
2021/06/27 04:15:03;;;;;;;12.47;9.30;;;;;;;17.79;100.00;101617.48;1927141;72;39563;-75
2021/06/27 04:20:27;;;;;;;13.33;9.00;;;;;;;17.82;100.00;101616.28;1833142;78;85584;-78
2021/06/27 04:25:52;;;;;;;11.27;8.23;;;;;;;17.79;100.00;101609.89;1945224;73;39857;-75
2021/06/27 04:31:18;;;;;;;14.33;10.00;;;;;;;17.74;100.00;101612.24;1869265;75;86338;-78
2021/06/27 04:36:42;;;;;;;13.80;9.20;;;;;;;17.74;100.00;101601.57;1946949;73;39743;-77
2021/06/27 04:42:08;;;;;;;12.50;9.30;;;;;;;17.82;100.00;101596.61;1876953;75;86477;-78
2021/06/27 04:47:33;;;;;;;13.67;9.67;;;;;;;17.91;100.00;101600.91;1773254;79;85493;-75
2021/06/27 04:52:56;;;;;;;17.27;10.93;;;;;;;17.73;100.00;101588.66;1915907;73;39520;-75
2021/06/27 04:58:21;;;;;;;17.53;11.93;;;;;;;17.60;100.00;101586.13;1837462;77;86496;-75
2021/06/27 05:03:47;;;;;;;18.53;11.67;;;;;;;17.62;100.00;101601.28;1946622;73;40549;-77
2021/06/27 05:09:12;;;;;;;18.30;12.37;;;;;;;17.70;100.00;101590.70;1882228;75;86623;-78
2021/06/27 05:14:36;;;;;;;19.43;13.17;;;;;;;17.66;100.00;101582.08;1924935;73;39805;-78
2021/06/27 05:20:00;;;;;;;20.73;13.73;;;;;;;17.69;100.00;101578.63;1916564;73;39434;-78
2021/06/27 05:25:26;;;;;;;19.60;13.40;;;;;;;17.75;100.00;101580.76;1873118;73;85782;-75
2021/06/27 05:30:50;;;;;;;24.10;15.60;;;;;;;17.71;100.00;101574.11;1945593;73;39515;-77
2021/06/27 05:36:37;;;;;;;22.90;14.63;;;;;;;17.82;100.00;101569.07;1883762;75;86464;-78
2021/06/27 05:42:02;;;;;;;21.43;14.87;;;;;;;17.84;100.00;101570.41;1943351;73;39665;-75
2021/06/27 05:47:26;;;;;;;24.47;15.73;;;;;;;17.80;100.00;101572.19;1793468;79;86429;-75
2021/06/27 05:52:50;;;;;;;22.30;15.43;;;;;;;17.84;100.00;101568.20;1945697;72;39624;-78
2021/06/27 05:58:14;;;;;;;22.60;15.63;;;;;;;17.88;100.00;101574.84;1892716;74;86489;-78
2021/06/27 06:03:39;;;;;;;26.13;16.70;;;;;;;17.92;100.00;101578.69;1923414;73;39822;-74
2021/06/27 06:09:02;;;;;;;22.70;15.93;;;;;;;17.96;100.00;101577.73;1943463;73;39657;-76
2021/06/27 06:14:27;;;;;;;26.07;17.30;;;;;;;17.92;100.00;101572.48;1785040;79;86334;-79
2021/06/27 06:19:53;;;;;;;24.90;17.23;;;;;;;17.98;100.00;101579.64;1916086;73;39845;-75
2021/06/27 06:25:17;;;;;;;26.00;17.30;;;;;;;17.99;100.00;101571.47;1837313;77;85777;-78
2021/06/27 06:30:42;;;;;;;25.27;17.07;;;;;;;18.01;100.00;101572.56;1936150;73;39730;-75
2021/06/27 06:36:08;;;;;;;28.80;17.97;;;;;;;17.96;100.00;101583.92;1881518;75;86212;-75
2021/06/27 06:41:32;;;;;;;28.10;17.83;;;;;;;18.01;100.00;101582.41;1838360;77;86519;-75
2021/06/27 06:46:57;;;;;;;26.37;18.20;;;;;;;18.03;100.00;101575.30;1956095;73;39611;-79
2021/06/27 06:52:22;;;;;;;28.57;18.17;;;;;;;18.05;100.00;101563.19;1837503;77;85763;-78
2021/06/27 06:57:47;;;;;;;23.63;17.17;;;;;;;18.06;100.00;101547.95;1946273;73;39607;-79
2021/06/27 07:03:13;;;;;;;27.13;18.13;;;;;;;18.23;100.00;101547.85;1843878;77;86247;-75
2021/06/27 07:08:37;;;;;;;29.13;18.30;;;;;;;18.26;100.00;101555.64;1948625;73;39532;-78
2021/06/27 07:14:01;;;;;;;24.37;17.43;;;;;;;18.26;100.00;101556.47;1910393;73;39862;-74
2021/06/27 07:19:26;;;;;;;27.23;17.90;;;;;;;18.32;100.00;101558.56;1874600;75;86567;-79
2021/06/27 07:24:50;;;;;;;27.20;17.83;;;;;;;18.31;100.00;101559.73;1932084;72;39581;-74
2021/06/27 07:30:16;;;;;;;27.87;17.07;;;;;;;18.30;100.00;101565.09;1838716;77;86813;-78
2021/06/27 07:35:41;;;;;;;27.10;18.70;;;;;;;18.28;100.00;101563.16;1948150;73;39753;-79
2021/06/27 07:41:05;;;;;;;27.67;17.90;;;;;;;18.36;100.00;101564.63;1930522;72;39571;-78
2021/06/27 07:46:29;;;;;;;28.53;18.87;;;;;;;18.47;100.00;101557.61;1801628;79;85555;-73
2021/06/27 07:51:55;;;;;;;28.17;18.63;;;;;;;18.45;100.00;101563.28;1915155;73;39561;-74
2021/06/27 07:57:19;;;;;;;29.80;18.87;;;;;;;18.45;100.00;101568.91;1837490;77;85621;-78
2021/06/27 08:02:44;;;;;;;30.50;20.73;;;;;;;18.50;100.00;101572.44;1947000;73;39658;-76
2021/06/27 08:08:08;;;;;;;28.27;19.60;;;;;;;18.53;100.00;101567.59;1876973;75;86703;-73
2021/06/27 08:13:31;;;;;;;32.67;20.50;;;;;;;18.54;100.00;101562.23;1838523;77;86459;-79
2021/06/27 08:18:56;;;;;;;27.10;18.90;;;;;;;18.59;100.00;101557.88;1917878;73;39606;-77
2021/06/27 08:24:20;;;;;;;29.03;18.43;;;;;;;18.61;100.00;101564.61;1837367;77;86265;-74
2021/06/27 08:29:44;;;;;;;32.13;19.23;;;;;;;18.70;100.00;101568.27;1936216;72;39653;-77
2021/06/27 08:35:11;;;;;;;32.77;19.67;;;;;;;18.68;100.00;101565.53;1877109;74;86705;-78
2021/06/27 08:40:42;;;;;;;31.97;19.77;;;;;;;18.73;100.00;101564.00;1947235;73;39663;-78
2021/06/27 08:46:08;;;;;;;32.83;19.67;;;;;;;18.78;100.00;101555.42;1889363;75;86555;-75
2021/06/27 08:51:39;;;;;;;28.97;19.73;;;;;;;18.84;100.00;101556.35;1942017;71;86546;-75
2021/06/27 08:57:03;;;;;;;30.17;18.67;;;;;;;18.82;100.00;101560.66;1943361;72;39624;-77
2021/06/27 09:02:30;;;;;;;28.00;18.47;;;;;;;19.00;100.00;101548.30;1825280;78;86185;-76
2021/06/27 09:07:55;;;;;;;22.97;17.20;;;;;;;19.15;100.00;101519.71;1944918;73;39499;-75
2021/06/27 09:13:38;;;;;;;23.60;17.07;;;;;;;19.48;100.00;101504.07;1867352;75;86380;-75
2021/06/27 09:19:22;;;;;;;24.00;17.37;;;;;;;19.71;100.00;101510.41;1883010;75;86511;-74
2021/06/27 09:28:19;;;;;;;23.77;16.67;;;;;;;19.81;100.00;101517.70;1879941;76;86561;-75
2021/06/27 09:30:51;;;;;;;21.65;17.25;;;;;;;19.78;100.00;101518.34;1803163;77;938704;-74
2021/06/27 09:33:24;;;;;;;21.57;14.73;;;;;;;19.63;100.00;101517.44;1790013;79;940790;-71
2021/06/27 09:35:56;;;;;;;21.80;15.47;;;;;;;19.57;100.00;101528.61;1775725;78;940828;-73
2021/06/27 09:38:33;;;;;;;20.20;15.50;;;;;;;19.47;100.00;101531.99;1764345;79;939023;-73
2021/06/27 09:41:07;;;;;;;22.20;16.30;;;;;;;19.47;100.00;101526.92;1750806;79;940922;-73
2021/06/27 09:43:38;;;;;;;21.93;15.97;;;;;;;19.51;100.00;101526.55;1802335;78;938839;-74
2021/06/27 09:49:06;;;;;;;22.73;17.00;;;;;;;19.54;100.00;101517.43;1925551;72;39604;-74
2021/06/27 09:54:32;;;;;;;18.80;15.17;;;;;;;19.89;100.00;101503.61;1869221;76;85736;-73
2021/06/27 09:59:56;;;;;;;16.80;13.10;;;;;;;19.88;100.00;101509.57;1944524;73;39813;-74
2021/06/27 10:05:27;;;;;;;12.77;10.90;;;;;;;19.74;100.00;101515.37;1837572;77;86195;-75
2021/06/27 10:10:52;;;;;;;13.73;11.10;;;;;;;19.82;100.00;101506.66;1931767;72;39789;-75
2021/06/27 10:16:28;;;;;;;12.10;10.90;;;;;;;19.95;100.00;101507.91;1869243;77;86534;-75
2021/06/27 10:21:52;;;;;;;13.23;11.40;;;;;;;20.37;100.00;101494.92;1945306;73;39628;-75
2021/06/27 10:27:15;;;;;;;12.27;10.37;;;;;;;20.52;100.00;101489.91;1837100;77;86358;-75
2021/06/27 10:32:43;;;;;;;14.43;12.50;;;;;;;20.60;100.00;101499.77;1927709;72;39887;-74
2021/06/27 10:38:09;;;;;;;14.83;12.03;;;;;;;20.39;100.00;101500.24;1876938;75;86268;-74
2021/06/27 10:44:05;;;;;;;17.37;14.63;;;;;;;20.28;100.00;101503.95;1946229;73;39611;-75
2021/06/27 10:53:02;;;;;;;16.73;14.73;;;;;;;20.21;100.00;101509.87;2000856;69;39639;-74
2021/06/27 10:58:39;;;;;;;19.63;15.63;;;;;;;20.33;100.00;101504.39;1930234;72;39434;-74
2021/06/27 11:07:08;;;;;;;21.47;16.93;;;;;;;20.26;100.00;101497.00;1915062;75;86602;-73
2021/06/27 11:09:39;;;;;;;20.27;17.33;;;;;;;20.21;100.00;101505.63;1831260;77;936877;-74
2021/06/27 11:12:09;;;;;;;22.70;17.10;;;;;;;20.18;100.00;101502.91;1830917;77;940869;-73
2021/06/27 11:14:39;;;;;;;23.80;18.00;;;;;;;20.17;100.00;101504.64;1801291;78;938981;-73
2021/06/27 11:17:09;;;;;;;23.00;17.47;;;;;;;20.13;100.00;101501.67;1818261;77;940712;-73
2021/06/27 11:19:42;;;;;;;27.37;20.13;;;;;;;20.14;100.00;101502.50;1803053;77;938983;-73
2021/06/27 11:22:21;;;;;;;28.13;20.00;;;;;;;20.13;100.00;101506.48;1831044;77;940935;-73
2021/06/27 11:24:53;;;;;;;28.07;20.52;;;;;;;20.13;100.00;101505.91;1785286;78;940866;-73
2021/06/27 11:27:32;;;;;;;28.30;20.70;;;;;;;20.28;100.00;101507.39;1831198;77;940842;-73
2021/06/27 11:30:04;;;;;;;27.90;19.83;;;;;;;20.35;100.00;101497.84;1819109;77;940728;-73
2021/06/27 11:32:38;;;;;;;28.43;19.57;;;;;;;20.38;100.00;101495.76;1830437;77;938871;-73
2021/06/27 11:35:09;;;;;;;27.47;19.07;;;;;;;20.38;100.00;101498.58;1831154;77;940876;-73
2021/06/27 11:37:47;;;;;;;27.30;19.73;;;;;;;20.47;100.00;101490.09;1831278;77;938914;-73
2021/06/27 11:40:17;;;;;;;25.20;18.80;;;;;;;20.50;100.00;101488.00;1831212;77;940823;-72
2021/06/27 11:42:50;;;;;;;28.53;20.33;;;;;;;20.52;100.00;101490.75;1819196;77;940667;-73
2021/06/27 11:48:51;;;;;;;27.43;19.63;;;;;;;20.55;100.00;101487.24;1945300;73;39585;-74
2021/06/27 11:54:18;;;;;;;27.67;20.20;;;;;;;20.49;100.00;101481.55;1877396;75;86440;-74
2021/06/27 11:59:56;;;;;;;27.80;21.17;;;;;;;20.62;100.00;101477.69;1931086;72;40165;-75
2021/06/27 12:05:24;;;;;;;26.10;20.57;;;;;;;20.55;100.00;101482.17;1780211;79;86033;-74
2021/06/27 12:10:51;;;;;;;29.67;19.73;;;;;;;20.81;100.00;101480.92;1945908;73;40472;-73
2021/06/27 12:16:17;;;;;;;27.53;20.60;;;;;;;20.88;100.00;101486.02;1869360;76;85596;-75
2021/06/27 12:21:42;;;;;;;25.10;20.40;;;;;;;20.84;100.00;101477.41;1921191;73;39675;-75
2021/06/27 12:27:12;;;;;;;25.80;20.60;;;;;;;20.84;100.00;101482.22;1904515;75;86639;-75
2021/06/27 12:33:01;;;;;;;26.33;20.57;;;;;;;21.05;100.00;101468.98;1946278;73;39610;-74
2021/06/27 12:38:29;;;;;;;24.50;20.50;;;;;;;21.04;100.00;101472.17;1882447;75;86822;-72
2021/06/27 12:43:59;;;;;;;24.83;20.77;;;;;;;21.03;100.00;101467.11;1944291;73;39522;-75
2021/06/27 12:49:28;;;;;;;26.13;20.80;;;;;;;21.05;100.00;101467.58;1839784;76;86188;-73
2021/06/27 12:54:57;;;;;;;26.07;21.17;;;;;;;21.01;100.00;101465.80;1944216;73;39715;-74
2021/06/27 13:00:22;;;;;;;23.97;19.07;;;;;;;21.03;100.00;101457.22;1837661;77;85490;-73
2021/06/27 13:05:59;;;;;;;27.37;20.70;;;;;;;21.08;100.00;101454.20;1946162;73;39523;-75
2021/06/27 13:11:24;;;;;;;25.20;21.00;;;;;;;21.20;100.00;101450.66;1947263;71;85573;-75
2021/06/27 13:17:02;;;;;;;25.97;21.80;;;;;;;21.13;100.00;101465.34;1945841;73;39734;-72
2021/06/27 13:22:27;;;;;;;28.83;22.67;;;;;;;21.02;100.00;101456.97;1793618;79;85506;-75
2021/06/27 13:27:56;;;;;;;29.30;21.33;;;;;;;20.88;100.00;101459.19;1914686;72;39457;-74
2021/06/27 13:33:22;;;;;;;28.37;21.97;;;;;;;20.82;100.00;101440.80;1837473;77;86520;-74
2021/06/27 13:38:56;;;;;;;28.57;21.80;;;;;;;20.87;100.00;101450.50;1944875;73;39609;-75
2021/06/27 13:44:21;;;;;;;28.70;21.63;;;;;;;20.92;100.00;101453.14;1837468;77;86366;-73
2021/06/27 13:49:45;;;;;;;29.93;21.43;;;;;;;20.93;100.00;101456.18;1935115;72;39627;-74
2021/06/27 13:55:11;;;;;;;26.80;21.03;;;;;;;20.98;100.00;101453.17;1891894;74;85873;-74
2021/06/27 14:00:36;;;;;;;28.77;23.63;;;;;;;21.07;100.00;101451.70;1948879;73;40320;-73
2021/06/27 14:06:01;;;;;;;31.07;23.70;;;;;;;21.18;100.00;101446.75;1910759;73;39549;-75
2021/06/27 14:11:28;;;;;;;29.33;23.63;;;;;;;21.31;100.00;101440.59;1905754;74;86583;-75
2021/06/27 14:16:52;;;;;;;33.17;25.87;;;;;;;21.29;100.00;101438.14;1902219;73;39537;-75
2021/06/27 14:22:16;;;;;;;33.70;26.67;;;;;;;21.25;100.00;101444.81;1829241;78;86310;-74
2021/06/27 14:27:42;;;;;;;32.27;27.13;;;;;;;21.16;100.00;101438.39;1937741;73;40942;-75
2021/06/27 14:33:09;;;;;;;32.90;26.70;;;;;;;21.10;100.00;101440.55;1876867;75;86464;-75
2021/06/27 14:38:33;;;;;;;33.83;26.97;;;;;;;21.12;100.00;101443.91;1838562;77;86744;-75
2021/06/27 14:44:01;;;;;;;35.73;28.27;;;;;;;21.15;100.00;101431.08;1927848;73;39586;-75
2021/06/27 14:49:25;;;;;;;32.93;27.53;;;;;;;21.22;100.00;101433.59;1863319;76;86274;-74
2021/06/27 14:54:49;;;;;;;33.43;29.53;;;;;;;21.30;100.00;101427.08;1916911;73;39702;-74
2021/06/27 15:00:14;;;;;;;35.67;29.67;;;;;;;21.27;100.00;101425.50;1877045;75;86831;-74
2021/06/27 15:05:37;;;;;;;35.57;29.10;;;;;;;21.19;100.00;101427.81;1923924;73;39741;-75
2021/06/27 15:11:06;;;;;;;36.63;30.63;;;;;;;21.13;100.00;101418.73;1910992;73;39696;-75
2021/06/27 15:16:31;;;;;;;34.07;30.47;;;;;;;21.14;100.00;101411.88;1855795;75;85308;-75
2021/06/27 15:21:57;;;;;;;32.63;28.85;;;;;;;21.21;100.00;101407.11;1944700;73;39473;-74
2021/06/27 15:27:22;;;;;;;35.57;29.83;;;;;;;21.24;100.00;101407.83;1832710;78;86385;-75
2021/06/27 15:32:46;;;;;;;35.93;29.77;;;;;;;21.24;100.00;101402.18;1902350;73;39606;-75
2021/06/27 15:38:09;;;;;;;33.57;27.60;;;;;;;21.21;100.00;101395.81;1876841;75;86526;-76
2021/06/27 15:43:38;;;;;;;31.50;28.10;;;;;;;21.38;100.00;101399.92;1907296;73;39488;-76
2021/06/27 15:49:02;;;;;;;31.53;27.07;;;;;;;21.34;100.00;101401.20;1910776;72;39595;-76
2021/06/27 15:54:27;;;;;;;32.38;28.00;;;;;;;21.33;100.00;101388.23;1944125;71;85819;-77
2021/06/27 15:59:51;;;;;;;30.77;27.47;;;;;;;21.32;100.00;101386.57;1932861;72;39756;-74
2021/06/27 16:05:17;;;;;;;34.37;27.33;;;;;;;21.39;100.00;101374.73;1836997;77;86789;-76
2021/06/27 16:10:42;;;;;;;33.17;27.43;;;;;;;21.38;100.00;101374.48;1936688;72;40373;-77
2021/06/27 16:16:09;;;;;;;31.03;27.30;;;;;;;21.40;100.00;101369.88;1891501;74;86025;-78
2021/06/27 16:21:34;;;;;;;31.47;26.07;;;;;;;21.34;100.00;101377.17;1869159;76;86809;-72
2021/06/27 16:27:00;;;;;;;29.00;25.40;;;;;;;21.30;100.00;101379.04;1932138;72;39537;-78
2021/06/27 16:32:25;;;;;;;28.03;24.83;;;;;;;21.24;100.00;101374.75;1944055;71;86374;-77
2021/06/27 16:37:53;;;;;;;26.57;23.73;;;;;;;21.31;100.00;101377.02;1933821;72;39579;-77
2021/06/27 16:43:18;;;;;;;26.20;22.53;;;;;;;21.43;100.00;101372.03;1877875;75;86161;-76
2021/06/27 16:48:42;;;;;;;26.17;22.27;;;;;;;21.46;100.00;101369.92;1947266;73;39840;-76
2021/06/27 16:54:06;;;;;;;25.87;23.13;;;;;;;21.50;100.00;101362.40;1942869;73;39553;-74
2021/06/27 16:59:31;;;;;;;25.37;22.77;;;;;;;21.48;100.00;101369.80;1825192;78;86231;-73
2021/06/27 17:05:03;;;;;;;24.27;21.73;;;;;;;21.43;100.00;101363.55;1898680;72;39498;-76
2021/06/27 17:10:27;;;;;;;23.47;20.97;;;;;;;21.37;100.00;101355.03;1947151;71;86477;-72
2021/06/27 17:15:52;;;;;;;23.40;20.77;;;;;;;21.35;100.00;101357.61;1945331;73;39621;-74
2021/06/27 17:18:21;;;;;;;22.53;20.13;;;;;;;;;;1892825;75;938778;-70
2021/06/27 17:23:45;;;;;;;21.83;19.53;;;;;;;21.30;100.00;101371.14;1936064;72;40319;-68
2021/06/27 17:29:10;;;;;;;21.87;19.47;;;;;;;21.29;100.00;101366.66;1892113;74;85597;-70
2021/06/27 17:34:35;;;;;;;20.00;17.90;;;;;;;21.23;100.00;101372.26;1949294;73;39538;-70
2021/06/27 17:40:00;;;;;;;19.43;17.43;;;;;;;21.16;100.00;101379.05;1927498;72;39692;-80
2021/06/27 17:45:24;;;;;;;20.27;18.17;;;;;;;21.10;100.00;101383.21;1949772;70;86493;-69
2021/06/27 17:50:50;;;;;;;18.60;16.70;;;;;;;21.08;100.00;101381.33;1917992;73;39627;-77
2021/06/27 17:56:17;;;;;;;17.40;15.80;;;;;;;21.06;100.00;101377.42;1837140;77;85345;-72
2021/06/27 18:01:42;;;;;;;18.43;16.47;;;;;;;21.05;100.00;101373.55;1947383;73;39552;-77
2021/06/27 18:07:06;;;;;;;25.07;22.37;;;;;;;21.10;100.00;101378.98;1848326;77;87016;-77
2021/06/27 18:12:31;;;;;;;27.17;23.70;;;;;;;21.02;100.00;101370.81;1782299;78;86265;-69
2021/06/27 18:17:56;;;;;;;35.07;31.37;;;;;;;20.87;100.00;101384.97;1929039;73;39610;-69
2021/06/27 18:23:22;;;;;;;42.73;37.17;;;;;;;20.81;100.00;101390.55;1867574;75;86200;-72
2021/06/27 18:28:48;;;;;;;42.17;34.97;;;;;;;20.78;100.00;101405.95;1935445;72;39772;-72
2021/06/27 18:34:19;;;;;;;44.93;39.13;;;;;;;20.57;100.00;101416.34;1893791;74;86337;-78
2021/06/27 18:39:44;;;;;;;48.77;40.30;;;;;;;20.51;100.00;101424.17;1920419;73;39719;-79
2021/06/27 18:45:11;;;;;;;49.03;41.77;;;;;;;20.41;100.00;101421.70;1891772;74;85274;-72
2021/06/27 18:50:36;;;;;;;53.43;44.50;;;;;;;20.22;100.00;101422.66;1949478;72;39689;-79
2021/06/27 18:56:01;;;;;;;62.63;48.87;;;;;;;20.15;100.00;101424.58;1943797;73;39488;-78
2021/06/27 19:01:27;;;;;;;68.80;50.73;;;;;;;20.13;100.00;101425.51;1785096;79;85566;-69
2021/06/27 19:06:51;;;;;;;63.70;49.57;;;;;;;20.13;100.00;101428.91;1945720;73;39489;-78
2021/06/27 19:12:16;;;;;;;65.13;50.00;;;;;;;20.12;100.00;101418.78;1869365;76;86443;-79
2021/06/27 19:17:41;;;;;;;65.77;49.83;;;;;;;19.98;100.00;101420.41;1948311;73;39457;-78
2021/06/27 19:23:06;;;;;;;65.17;51.57;;;;;;;19.89;100.00;101431.71;1930650;72;39739;-78
2021/06/27 19:28:51;;;;;;;73.60;52.67;;;;;;;19.96;100.00;101434.01;1827451;76;85536;-77
2021/06/27 19:34:35;;;;;;;72.07;54.00;;;;;;;19.84;100.00;101431.88;1836967;77;86369;-78
2021/06/27 19:40:02;;;;;;;73.77;53.13;;;;;;;19.96;100.00;101429.77;1913726;73;39608;-78
2021/06/27 19:45:26;;;;;;;67.37;49.70;;;;;;;19.81;100.00;101415.61;1880918;75;86231;-70
2021/06/27 19:50:51;;;;;;;53.20;37.57;;;;;;;19.66;100.00;101418.12;1916801;73;39455;-78
2021/06/27 19:56:22;;;;;;;41.33;33.13;;;;;;;19.63;100.00;101421.61;1869447;75;86301;-72
2021/06/27 20:01:51;;;;;;;36.37;31.87;;;;;;;19.48;100.00;101422.34;1900017;73;39667;-72
2021/06/27 20:07:17;;;;;;;41.47;33.13;;;;;;;19.53;100.00;101421.36;1877574;75;86602;-72
2021/06/27 20:12:42;;;;;;;37.37;32.37;;;;;;;19.51;100.00;101414.63;1938264;72;39571;-72
2021/06/27 20:18:08;;;;;;;38.70;31.13;;;;;;;19.45;100.00;101426.41;1877135;75;86665;-72
2021/06/27 20:23:33;;;;;;;42.70;34.83;;;;;;;19.49;100.00;101431.06;1833756;78;86487;-83
2021/06/27 20:28:58;;;;;;;41.63;35.77;;;;;;;19.51;100.00;101429.33;1912612;73;39466;-72
2021/06/27 20:34:23;;;;;;;46.60;36.97;;;;;;;19.37;100.00;101429.45;1858996;75;86454;-77
2021/06/27 20:39:47;;;;;;;47.93;36.07;;;;;;;19.40;100.00;101433.01;1946383;73;39410;-72
2021/06/27 20:47:58;;;;;;;43.63;37.10;;;;;;;19.34;100.00;101439.15;1995202;69;39352;-74
2021/06/27 20:50:30;;;;;;;48.33;38.17;;;;;;;19.40;100.00;101444.28;1936224;73;936875;-74
2021/06/27 20:53:03;;;;;;;47.97;36.70;;;;;;;19.32;100.00;101438.64;1843722;75;941003;-72
2021/06/27 20:55:34;;;;;;;48.43;37.00;;;;;;;19.28;100.00;101446.09;1866798;76;938987;-77
2021/06/27 20:58:06;;;;;;;45.53;38.00;;;;;;;19.31;100.00;101444.02;1854530;76;940833;-71
2021/06/27 21:03:34;;;;;;;48.60;35.93;;;;;;;19.34;100.00;101448.41;1764225;79;85736;-77
2021/06/27 21:08:58;;;;;;;45.03;34.57;;;;;;;19.29;100.00;101442.12;1892844;73;39636;-76
2021/06/27 21:14:22;;;;;;;47.00;32.30;;;;;;;19.23;100.00;101445.67;1858316;76;86575;-76
2021/06/27 21:19:47;;;;;;;37.93;29.43;;;;;;;19.11;100.00;101442.67;1946275;73;39496;-71
2021/06/27 21:25:14;;;;;;;41.57;30.60;;;;;;;18.99;100.00;101439.09;1892193;75;86181;-76
2021/06/27 21:30:38;;;;;;;41.53;31.23;;;;;;;18.90;100.00;101434.59;1923895;73;39469;-71
2021/06/27 21:36:02;;;;;;;43.13;30.47;;;;;;;18.92;100.00;101437.31;1943444;73;39649;-71
2021/06/27 21:41:27;;;;;;;43.10;31.23;;;;;;;18.78;100.00;101440.85;1759053;80;86547;-71
2021/06/27 21:49:38;;;;;;;43.50;31.27;;;;;;;18.73;100.00;101440.16;2005346;69;39596;-74
2021/06/27 21:52:08;;;;;;;43.83;30.97;;;;;;;18.66;100.00;101444.84;1935945;73;938748;-78
2021/06/27 21:54:38;;;;;;;44.67;31.50;;;;;;;18.66;100.00;101457.50;1936111;73;939098;-71
2021/06/27 21:57:09;;;;;;;42.93;31.30;;;;;;;18.63;100.00;101459.00;1936138;72;940826;-72
2021/06/27 21:59:39;;;;;;;47.10;32.70;;;;;;;18.63;100.00;101464.63;1936176;72;938977;-78
2021/06/27 22:02:09;;;;;;;47.73;29.57;;;;;;;18.60;100.00;101463.87;1855736;76;940712;-72
2021/06/27 22:04:39;;;;;;;45.10;29.50;;;;;;;18.64;100.00;101466.86;1862768;76;938783;-72
2021/06/27 22:07:09;;;;;;;41.77;26.80;;;;;;;18.68;100.00;101467.03;1862717;76;940825;-77
2021/06/27 22:09:40;;;;;;;39.10;25.57;;;;;;;18.50;100.00;101464.69;1862644;76;938841;-72
2021/06/27 22:12:12;;;;;;;36.53;21.90;;;;;;;18.33;100.00;101464.59;1862661;74;940777;-71
2021/06/27 22:14:42;;;;;;;35.13;22.77;;;;;;;18.30;100.00;101463.84;1850442;74;940681;-77
2021/06/27 22:17:12;;;;;;;31.13;20.13;;;;;;;18.24;100.00;101461.73;1862622;74;940660;-71
2021/06/27 22:19:43;;;;;;;34.73;21.40;;;;;;;18.19;100.00;101457.64;1850482;76;940794;-74
2021/06/27 22:22:13;;;;;;;29.57;19.60;;;;;;;18.21;100.00;101462.38;1862761;76;939715;-73
2021/06/27 22:24:43;;;;;;;26.57;19.70;;;;;;;18.24;100.00;101457.52;1850376;74;941185;-72
2021/06/27 22:27:14;;;;;;;32.70;19.43;;;;;;;18.11;100.00;101455.61;1862737;76;939827;-80
2021/06/27 22:29:45;;;;;;;28.70;19.03;;;;;;;18.08;100.00;101455.69;1850452;74;940957;-73
2021/06/27 22:32:15;;;;;;;27.00;18.67;;;;;;;17.99;100.00;101451.16;1862645;74;940784;-75
2021/06/27 22:34:45;;;;;;;27.10;18.30;;;;;;;17.95;100.00;101457.16;1850568;76;940897;-78
2021/06/27 22:37:16;;;;;;;27.17;18.27;;;;;;;17.95;100.00;101450.97;1862755;76;940768;-78
2021/06/27 22:39:46;;;;;;;25.67;17.03;;;;;;;17.95;100.00;101458.00;1850462;74;940884;-74